x

8413320 - Bar Harbor, Me (atgm1) Weather Station

4:18am - Sun 17th Dec 2017 All times are EST. -5 hours from GMT.

  • Wind
    11mph, 20mph gusts
  • Sea Temp 42°f
  • Air Temp 17°f
  • Sea Pressure 1020.4mb
  • 8413320 - Bar Harbor, Me
  • 8413320 - Bar Harbor, Me

More Historic Weather Station data

Upgrade to MSW Pro to gain access to the past 30 days of data for over 8000 Wavebouys and Weather Stations around the globe.

Join

Comparision Forecast

View Surf forecast
   
Sun 12/17 4:18am 11 20 mph 1020.4mb 42f 17f
4:12am 13 20 mph 1020.3mb 42f 17f
4:06am 13 20 mph 1020.4mb 41f 17f
4:00am 14 18 mph 1020.4mb 41f 17f
3:54am 10 14 mph 1020.4mb 41f 17f
3:48am 9 15 mph 1020.3mb 41f 17f
3:42am 10 14 mph 1020.3mb 41f 16f
3:36am 11 20 mph 1020.1mb 41f 17f
3:30am 15 20 mph 1020.1mb 41f 19f
3:24am 9 14 mph 1020.1mb 41f 17f
3:18am 9 16 mph 1020mb 41f 17f
3:12am 9 15 mph 1020.1mb 41f 17f
3:06am 11 15 mph 1020.1mb 41f 18f
3:00am 9 14 mph 1020mb 41f 18f
2:54am 13 18 mph 1019.9mb 41f 18f
2:48am 14 17 mph 1019.8mb 41f 18f
2:42am 13 20 mph 1019.8mb 41f 18f
2:36am 11 16 mph 1019.7mb 41f 18f
2:30am 11 17 mph 1019.8mb 41f 18f
2:24am 14 21 mph 1019.8mb 41f 18f
2:18am 14 18 mph 1019.9mb 41f 18f
2:12am 13 20 mph 1019.8mb 41f 18f
2:06am 15 20 mph 1019.8mb 41f 18f
2:00am 14 22 mph 1019.7mb 41f 18f
1:48am 13 17 mph 1019.5mb 41f 18f
1:42am 13 18 mph 1019.2mb 41f 18f
1:36am 10 14 mph 1019.1mb 41f 18f
1:30am 10 14 mph 1019mb 41f 18f
1:24am 10 18 mph 1018.9mb 41f 19f
1:18am 13 20 mph 1018.7mb 41f 19f
1:12am 14 17 mph 1018.5mb 41f 19f
1:06am 7 11 mph 1018.6mb 41f 18f
1:00am 11 15 mph 1018.4mb 41f 19f
12:54am 10 17 mph 1018.2mb 41f 19f
12:48am 11 17 mph 1018.1mb 41f 20f
12:42am 14 21 mph 1018.1mb 41f 20f
12:36am 13 18 mph 1018mb 41f 20f
12:30am 14 21 mph 1017.8mb 41f 20f
12:24am 15 20 mph 1017.8mb 41f 20f
12:18am 16 21 mph 1017.8mb 41f 20f
12:12am 15 20 mph 1018mb 41f 21f
12:06am 16 20 mph 1018.1mb 41f 20f
12:00am 14 17 mph 1018.2mb 41f 20f
Sat 12/16 11:54pm 14 20 mph 1018mb 41f 20f
11:48pm 15 18 mph 1017.9mb 41f 21f
11:42pm 15 20 mph 1017.9mb 41f 21f
11:36pm 15 20 mph 1017.7mb 41f 21f
11:30pm 15 20 mph 1017.6mb 41f 21f
11:24pm 16 20 mph 1017.6mb 41f 22f
11:18pm 14 18 mph 1017.6mb 41f 22f
11:12pm 15 20 mph 1017.7mb 41f 22f
11:06pm 15 18 mph 1017.6mb 41f 22f
11:00pm 15 18 mph 1017.7mb 41f 22f
10:48pm 14 17 mph 1017.5mb 41f 22f
10:42pm 9 15 mph 1017.6mb 41f 21f
10:36pm 11 17 mph 1017.5mb 41f 21f
10:30pm 10 15 mph 1017.3mb 41f 21f
10:24pm 8 14 mph 1017.2mb 41f 21f
10:18pm 11 14 mph 1017.1mb 41f 21f
10:12pm 8 14 mph 1017.1mb 41f 21f
10:06pm 8 14 mph 1016.9mb 41f 21f
10:00pm 11 16 mph 1016.7mb 41f 21f
9:54pm 11 14 mph 1016.6mb 41f 22f
9:48pm 11 15 mph 1016.5mb 42f 22f
9:42pm 14 20 mph 1016.4mb 42f 22f
9:36pm 14 16 mph 1016.3mb 42f 23f
9:30pm 11 14 mph 1016.3mb 42f 22f
9:24pm 8 10 mph 1016.2mb 42f 21f
9:18pm 7 10 mph 1016.2mb 42f 21f
9:12pm 7 9 mph 1016.2mb 42f 22f
9:06pm 6 10 mph 1016.1mb 41f 21f
9:00pm 7 10 mph 1016mb 42f 22f
8:54pm 8 10 mph 1015.9mb 42f 22f
8:48pm 7 11 mph 1015.8mb 43f 22f
8:42pm 9 13 mph 1015.8mb 43f 22f
8:36pm 11 14 mph 1015.7mb 43f 23f
8:30pm 11 15 mph 1015.6mb 43f 23f
8:24pm 13 15 mph 1015.6mb 43f 23f
8:18pm 11 16 mph 1015.3mb 42f 23f
8:12pm 13 15 mph 1015.2mb 42f 23f
8:06pm 11 13 mph 1015.1mb 42f 23f
8:00pm 9 14 mph 1015mb 42f 23f
7:54pm 9 13 mph 1014.9mb 42f 23f
7:48pm 9 14 mph 1015mb 43f 23f
7:42pm 9 14 mph 1014.9mb 43f 23f
7:36pm 10 15 mph 1014.9mb 43f 23f
7:30pm 11 15 mph 1014.8mb 43f 23f
7:24pm 11 17 mph 1014.8mb 42f 24f
7:18pm 14 16 mph 1014.6mb 42f 24f
7:12pm 14 16 mph 1014.5mb 43f 24f
7:06pm 14 17 mph 1014.4mb 42f 24f
7:00pm 13 16 mph 1014.3mb 42f 24f
6:54pm 11 15 mph 1014.3mb 42f 23f
6:48pm 11 14 mph 1014.3mb 42f 23f
6:42pm 13 18 mph 1014.1mb 42f 24f
6:36pm 14 16 mph 1014mb 42f 24f
6:30pm 14 16 mph 1013.9mb 42f 24f
6:24pm 14 16 mph 1013.8mb 42f 24f
6:18pm 13 17 mph 1013.7mb 42f 24f
6:12pm 13 18 mph 1013.5mb 42f 24f
6:06pm 13 16 mph 1013.5mb 42f 24f
6:00pm 11 14 mph 1013.4mb 42f 24f
5:54pm 10 14 mph 1013.3mb 42f 24f
5:48pm 10 13 mph 1013.2mb 42f 24f
5:42pm 9 13 mph 1013mb 42f 24f
5:36pm 11 14 mph 1012.8mb 42f 24f
5:30pm 10 13 mph 1012.7mb 42f 24f
5:24pm 8 10 mph 1012.7mb 42f 24f
5:18pm 7 11 mph 1012.6mb 42f 24f
5:12pm 9 13 mph 1012.5mb 42f 24f
5:06pm 9 13 mph 1012.3mb 42f 24f
5:00pm 10 14 mph 1012.3mb 42f 24f
4:54pm 9 14 mph 1012.1mb 41f 24f
4:48pm 9 11 mph 1012mb 41f 24f
4:42pm 8 13 mph 1011.9mb 41f 24f
4:36pm 8 11 mph 1011.8mb 41f 24f
4:30pm 9 11 mph 1011.6mb 41f 24f
4:24pm 11 14 mph 1011.4mb 41f 25f
4:18pm 11 15 mph 1011.3mb 41f 25f
4:12pm 13 15 mph 1011.2mb 41f 25f
4:06pm 13 17 mph 1011.2mb 41f 25f
4:00pm 14 17 mph 1011mb 41f 25f
3:54pm 14 16 mph 1010.9mb 41f 25f
3:48pm 14 16 mph 1010.8mb 41f 25f
3:42pm 14 17 mph 1010.7mb 41f 25f
3:36pm 13 16 mph 1010.7mb 41f 25f
3:30pm 11 17 mph 1010.5mb 41f 25f
3:24pm 15 18 mph 1010.3mb 41f 26f
3:18pm 15 18 mph 1010.2mb 41f 25f
3:12pm 15 18 mph 1010.1mb 41f 25f
3:06pm 14 18 mph 1010mb 41f 26f
3:00pm 16 22 mph 1009.8mb 41f 26f
2:54pm 17 21 mph 1009.7mb 41f 26f
2:48pm 16 21 mph 1009.6mb 41f 26f
2:42pm 15 21 mph 1009.5mb 41f 26f
2:36pm 16 20 mph 1009.5mb 41f 26f
2:30pm 17 21 mph 1009.4mb 41f 26f
2:24pm 18 21 mph 1009.3mb 41f 26f
2:18pm 16 22 mph 1009.2mb 41f 26f
2:12pm 18 24 mph 1009.2mb 41f 26f
2:06pm 17 22 mph 1009.2mb 41f 26f
2:00pm 13 16 mph 1009.3mb 41f 26f
1:54pm 14 20 mph 1009.2mb 41f 26f
1:48pm 15 21 mph 1009.1mb 41f 26f
1:42pm 16 21 mph 1009mb 41f 26f
1:36pm 14 18 mph 1009mb 42f 26f
1:30pm 10 22 mph 1009mb 41f 26f
1:24pm 15 17 mph 1008.9mb 42f 26f
1:18pm 13 18 mph 1009mb 42f 26f
1:12pm 14 22 mph 1009mb 41f 26f
1:06pm 15 20 mph 1008.9mb 42f 26f
1:00pm 14 17 mph 1008.9mb 41f 26f
12:54pm 11 17 mph 1009mb 42f 26f
12:48pm 15 18 mph 1009mb 42f 25f
12:42pm 14 16 mph 1008.9mb 42f 25f
12:36pm 13 17 mph 1009mb 42f 25f
12:30pm 14 20 mph 1009mb 42f 25f
12:24pm 10 16 mph 1009mb 41f 25f
12:18pm 13 16 mph 1009mb 42f 24f
12:12pm 11 16 mph 1009.1mb 42f 24f
12:06pm 13 17 mph 1009.1mb 42f 24f
12:00pm 14 17 mph 1009.1mb 42f 24f
11:54am 13 15 mph 1009.2mb 42f 24f
11:48am 15 17 mph 1009.3mb 42f 24f
11:42am 10 14 mph 1009.3mb 42f 24f
11:36am 13 16 mph 1009.3mb 42f 24f
11:30am 11 17 mph 1009.3mb 42f 24f
11:24am 14 17 mph 1009.3mb 42f 24f
11:18am 15 18 mph 1009.4mb 42f 23f
11:12am 13 17 mph 1009.4mb 42f 24f
11:06am 10 14 mph 1009.4mb 42f 24f
11:00am 11 14 mph 1009.5mb 42f 23f
9:12am 6 9 mph 1009.8mb 43f 20f
9:06am 7 10 mph 1009.6mb 43f 20f
9:00am 8 9 mph 1009.5mb 43f 20f
8:54am 6 8 mph 1009.4mb 43f 20f
8:48am 6 7 mph 1009.3mb 43f 20f
8:42am 6 9 mph 1009.3mb 43f 20f
8:36am 6 10 mph 1009.3mb 43f 20f
8:30am 8 11 mph 1009.2mb 43f 20f
8:24am 10 11 mph 1009.1mb 43f 20f
8:18am 8 10 mph 1009mb 43f 20f
8:12am 5 6 mph 1009mb 43f 19f
8:06am 5 7 mph 1009mb 43f 19f
8:00am 5 8 mph 1008.8mb 43f 20f
7:54am 7 8 mph 1008.8mb 43f 20f
7:48am 8 9 mph 1008.8mb 43f 20f
7:42am 7 9 mph 1008.8mb 43f 20f
7:36am 6 9 mph 1008.8mb 43f 20f
7:30am 7 9 mph 1008.8mb 43f 20f
7:24am 9 11 mph 1008.8mb 43f 20f
7:18am 8 9 mph 1008.8mb 43f 20f
7:12am 7 10 mph 1008.8mb 43f 20f
7:06am 9 10 mph 1008.7mb 42f 20f
7:00am 8 10 mph 1008.7mb 42f 20f
6:54am 8 11 mph 1008.7mb 42f 20f
6:48am 7 10 mph 1008.6mb 42f 20f
6:42am 8 10 mph 1008.6mb 42f 20f
6:36am 9 13 mph 1008.5mb 41f 20f
6:30am 7 11 mph 1008.4mb 42f 20f
6:24am 7 13 mph 1008.3mb 42f 20f
6:18am 7 10 mph 1008.3mb 42f 20f
6:12am 8 10 mph 1008.3mb 42f 20f
6:06am 8 10 mph 1008.1mb 42f 20f
6:00am 10 13 mph 1008.1mb 41f 20f
5:54am 10 15 mph 1008mb 41f 20f
5:48am 9 14 mph 1007.9mb 41f 20f
5:42am 11 17 mph 1007.8mb 41f 20f
5:36am 11 14 mph 1007.9mb 41f 20f
5:30am 9 13 mph 1007.8mb 41f 20f
5:24am 9 14 mph 1007.8mb 41f 20f
5:18am 11 15 mph 1007.7mb 41f 20f
5:12am 10 13 mph 1007.7mb 41f 19f
5:06am 9 13 mph 1007.7mb 41f 20f
5:00am 8 13 mph 1007.6mb 41f 20f
4:54am 10 13 mph 1007.6mb 41f 20f
4:48am 8 13 mph 1007.6mb 41f 20f
4:42am 7 13 mph 1007.5mb 41f 20f
4:36am 8 13 mph 1007.6mb 41f 20f
4:30am 9 14 mph 1007.6mb 41f 20f
4:24am 9 14 mph 1007.5mb 41f 20f
4:18am 11 14 mph 1007.5mb 41f 20f
4:12am 10 16 mph 1007.4mb 41f 20f
4:06am 11 15 mph 1007.5mb 41f 20f
4:00am 11 15 mph 1007.5mb 41f 21f
3:54am 13 15 mph 1007.5mb 41f 21f
3:48am 5 8 mph 1007.5mb 41f 21f
3:42am 7 11 mph 1007.6mb 41f 21f
3:36am 8 9 mph 1007.6mb 41f 21f
3:30am 7 14 mph 1007.6mb 41f 21f
3:24am 8 13 mph 1007.6mb 41f 21f
3:18am 7 10 mph 1007.6mb 41f 21f
3:12am 6 9 mph 1007.6mb 41f 22f
3:06am 8 11 mph 1007.6mb 41f 21f
3:00am 9 13 mph 1007.6mb 41f 21f
2:54am 7 9 mph 1007.7mb 42f 22f
2:48am 6 10 mph 1007.8mb 42f 21f
2:42am 7 11 mph 1007.8mb 41f 21f
2:36am 8 11 mph 1008mb 41f 22f
2:30am 7 9 mph 1008mb 41f 22f
2:24am 8 11 mph 1008mb 41f 22f
2:18am 7 10 mph 1007.9mb 41f 22f
2:12am 7 10 mph 1007.9mb 41f 23f
2:06am 8 10 mph 1007.9mb 41f 23f
2:00am 5 8 mph 1007.9mb 41f 23f
1:54am 6 8 mph 1007.9mb 41f 23f
1:48am 5 9 mph 1007.9mb 41f 23f
1:42am 6 9 mph 1007.9mb 41f 23f
1:36am 7 11 mph 1007.9mb 41f 23f
1:30am 9 11 mph 1007.8mb 41f 24f
1:24am 7 10 mph 1007.7mb 41f 24f
1:18am 7 11 mph 1007.8mb 41f 24f
1:12am 8 13 mph 1007.9mb 41f 24f
1:06am 8 13 mph 1007.9mb 41f 24f
1:00am 6 11 mph 1008mb 41f 24f
12:54am 8 10 mph 1008mb 41f 24f
12:48am 8 10 mph 1007.9mb 41f 24f
12:42am 10 13 mph 1007.9mb 41f 24f
12:36am 9 11 mph 1008.1mb 41f 25f
12:30am 7 11 mph 1008.2mb 41f 25f
12:24am 8 10 mph 1008.2mb 41f 25f
12:18am 7 9 mph 1008.3mb 41f 25f
12:12am 8 11 mph 1008.4mb 41f 25f
12:06am 10 14 mph 1008.5mb 41f 24f
12:00am 10 11 mph 1008.6mb 41f 25f
Fri 12/15 11:54pm 8 10 mph 1008.7mb 41f 24f
11:48pm 9 11 mph 1008.9mb 41f 24f
11:42pm 8 10 mph 1009mb 41f 25f
11:36pm 9 11 mph 1009.1mb 41f 24f
11:30pm 8 10 mph 1009.2mb 41f 25f
11:24pm 8 9 mph 1009.3mb 41f 24f
11:18pm 6 9 mph 1009.5mb 41f 25f
11:12pm 6 10 mph 1009.7mb 41f 25f
11:06pm 7 9 mph 1009.9mb 41f 25f
11:00pm 5 6 mph 1010mb 42f 25f
10:54pm 6 7 mph 1010.1mb 42f 25f
10:48pm 3 7 mph 1010.2mb 42f 25f
10:42pm 6 9 mph 1010.3mb 41f 25f
10:36pm 3 5 mph 1010.3mb 42f 25f
10:30pm 2 6 mph 1010.4mb 42f 25f
10:24pm 3 6 mph 1010.4mb 42f 25f
10:18pm 3 5 mph 1010.5mb 41f 25f
10:12pm 3 6 mph 1010.7mb 42f 25f
10:06pm 5 7 mph 1010.8mb 42f 25f
10:00pm 3 6 mph 1010.9mb 42f 25f
9:54pm 5 7 mph 1010.9mb 42f 25f
9:48pm 6 9 mph 1011mb 42f 25f
9:42pm 6 8 mph 1011mb 41f 24f
9:36pm 7 8 mph 1011mb 41f 25f
9:30pm 3 7 mph 1011mb 41f 25f
9:24pm 6 7 mph 1010.9mb 41f 25f
9:18pm 5 7 mph 1010.9mb 41f 24f
9:12pm 6 8 mph 1010.9mb 42f 24f
9:06pm 5 8 mph 1011mb 42f 25f
9:00pm 7 8 mph 1010.9mb 42f 25f
8:54pm 6 7 mph 1010.9mb 42f 25f
8:48pm 6 9 mph 1010.9mb 42f 25f
8:42pm 7 9 mph 1010.9mb 42f 25f
8:36pm 6 8 mph 1011mb 42f 25f
8:30pm 6 8 mph 1011.1mb 42f 25f
8:24pm 5 7 mph 1011.1mb 41f 25f
8:18pm 7 9 mph 1011.2mb 41f 25f
8:12pm 6 8 mph 1011.3mb 41f 25f
8:06pm 6 7 mph 1011.5mb 41f 25f
8:00pm 6 8 mph 1011.6mb 41f 25f
7:54pm 6 7 mph 1011.7mb 41f 25f
7:48pm 5 7 mph 1011.8mb 41f 25f
7:42pm 5 7 mph 1011.9mb 41f 25f
7:36pm 6 7 mph 1012.1mb 42f 25f
7:30pm 6 6 mph 1012.2mb 42f 25f
7:24pm 5 6 mph 1012.3mb 42f 25f
7:18pm 1 6 mph 1012.4mb 42f 25f
7:12pm 3 5 mph 1012.5mb 42f 25f
7:06pm 3 6 mph 1012.6mb 42f 25f
7:00pm 3 6 mph 1012.7mb 42f 25f
6:54pm 3 5 mph 1012.9mb 42f 25f
6:48pm 3 5 mph 1013.1mb 42f 24f
6:42pm 3 5 mph 1013.3mb 42f 25f
6:36pm 2 3 mph 1013.4mb 42f 24f
6:30pm  -  5 mph 1013.6mb 42f 24f
6:24pm 5 6 mph 1013.6mb 42f 24f
6:18pm 3 5 mph 1013.7mb 42f 23f
6:12pm 3 6 mph 1013.8mb 42f 23f
6:06pm 5 6 mph 1013.8mb 42f 23f
6:00pm 5 7 mph 1013.9mb 41f 24f
5:54pm 5 7 mph 1014mb 42f 24f
5:48pm 5 7 mph 1014.1mb 41f 24f
5:42pm 5 7 mph 1014.1mb 41f 24f
5:36pm 5 6 mph 1014.1mb 41f 24f
5:30pm 5 6 mph 1014.3mb 41f 24f
5:24pm 5 6 mph 1014.3mb 41f 24f
5:18pm 6 7 mph 1014.3mb 41f 24f
5:12pm 6 7 mph 1014.4mb 41f 24f
5:06pm 6 7 mph 1014.3mb 41f 24f
5:00pm 7 8 mph 1014.3mb 41f 24f
4:54pm 6 8 mph 1014.3mb 41f 24f
4:48pm 6 8 mph 1014.5mb 41f 24f
4:42pm 7 9 mph 1014.5mb 41f 24f
4:36pm 6 7 mph 1014.6mb 41f 24f
4:30pm 5 7 mph 1014.6mb 41f 24f
4:24pm 6 7 mph 1014.5mb 42f 24f
4:18pm 6 8 mph 1014.6mb 42f 24f
4:12pm 6 7 mph 1014.5mb 42f 24f
4:06pm 7 8 mph 1014.6mb 42f 24f
4:00pm 7 8 mph 1014.6mb 42f 24f
3:54pm 6 7 mph 1014.8mb 42f 24f
3:48pm 5 6 mph 1014.9mb 42f 24f
3:42pm 3 6 mph 1014.9mb 42f 24f
3:36pm 5 7 mph 1014.9mb 42f 24f
3:30pm 3 5 mph 1015mb 42f 25f
3:24pm 3 5 mph 1015mb 42f 25f
3:18pm 3 6 mph 1015mb 42f 25f
3:12pm 3 6 mph 1015mb 42f 24f
3:06pm 5 6 mph 1015mb 42f 24f
3:00pm 3 7 mph 1014.9mb 42f 24f
2:54pm 5 9 mph 1014.8mb 42f 24f
2:48pm 3 6 mph 1014.8mb 42f 24f
2:42pm 5 9 mph 1014.9mb 42f 24f
2:36pm 6 9 mph 1014.9mb 42f 24f
2:30pm 6 8 mph 1014.9mb 42f 24f
2:24pm 5 8 mph 1014.8mb 42f 24f
2:18pm 5 8 mph 1014.9mb 42f 24f
2:12pm 7 9 mph 1014.9mb 42f 24f
2:06pm 9 10 mph 1014.9mb 41f 24f
2:00pm 9 13 mph 1014.9mb 41f 24f
1:54pm 8 10 mph 1014.9mb 41f 24f
1:48pm 10 15 mph 1015mb 41f 24f
1:42pm 6 11 mph 1015mb 41f 24f
1:36pm 6 11 mph 1015.1mb 41f 24f
1:30pm 7 15 mph 1015.2mb 41f 24f
1:24pm 10 15 mph 1015.1mb 41f 23f
1:18pm 9 15 mph 1015.2mb 41f 23f
1:12pm 10 14 mph 1015.2mb 41f 23f
1:06pm 9 13 mph 1015.5mb 41f 23f
1:00pm 9 14 mph 1015.4mb 41f 23f
12:54pm 9 15 mph 1015.6mb 41f 23f
12:48pm 13 18 mph 1015.6mb 41f 23f
12:42pm 14 18 mph 1015.6mb 41f 23f
12:36pm 7 11 mph 1015.6mb 41f 23f
12:30pm 11 14 mph 1015.7mb 41f 22f
12:24pm 13 15 mph 1015.6mb 41f 22f
12:18pm 11 15 mph 1015.7mb 41f 22f
12:12pm 8 14 mph 1015.9mb 41f 22f
12:06pm 10 16 mph 1015.9mb 41f 22f
12:00pm 11 15 mph 1015.9mb 41f 22f
11:54am 7 15 mph 1016.1mb 41f 22f
11:48am 13 17 mph 1016mb 41f 22f
11:42am 7 15 mph 1016.1mb 41f 22f
11:36am 10 17 mph 1016.3mb 41f 22f
11:30am 14 17 mph 1016.3mb 41f 22f
11:24am 10 17 mph 1016.4mb 41f 22f
11:18am 10 16 mph 1016.4mb 41f 21f
11:12am 9 16 mph 1016.6mb 41f 21f
11:06am 9 14 mph 1016.7mb 41f 21f
11:00am 10 15 mph 1016.7mb 41f 21f
10:54am 13 20 mph 1016.7mb 41f 21f
10:48am 10 17 mph 1016.8mb 42f 20f
10:42am 11 15 mph 1016.8mb 42f 20f
10:36am 13 16 mph 1016.9mb 42f 20f
10:30am 13 20 mph 1016.9mb 42f 20f
10:24am 15 18 mph 1016.9mb 42f 20f
10:18am 13 17 mph 1017.1mb 42f 19f
10:12am 9 13 mph 1017.1mb 42f 19f
10:06am 8 14 mph 1017.2mb 42f 20f
10:00am 14 17 mph 1017.2mb 42f 19f
9:54am 11 16 mph 1017.1mb 42f 20f
9:48am 9 16 mph 1017.1mb 42f 19f
9:42am 10 15 mph 1016.9mb 42f 19f
9:36am 9 14 mph 1017mb 41f 18f
9:30am 10 17 mph 1017mb 41f 19f
9:24am 10 15 mph 1017.1mb 41f 18f
9:18am 8 17 mph 1017mb 41f 18f
9:12am 8 13 mph 1016.9mb 41f 18f
9:06am 10 14 mph 1016.8mb 41f 18f
9:00am 8 11 mph 1016.7mb 42f 17f
8:54am 9 15 mph 1016.7mb 42f 17f
8:48am 10 17 mph 1016.6mb 42f 17f
8:42am 11 16 mph 1016.5mb 42f 17f
8:36am 11 15 mph 1016.4mb 42f 17f
8:30am 8 15 mph 1016.3mb 41f 17f
8:24am 11 17 mph 1016.2mb 41f 16f
8:18am 11 14 mph 1016.3mb 42f 15f
8:12am 8 14 mph 1016.2mb 42f 15f
8:06am 9 17 mph 1016mb 42f 15f
8:00am 10 17 mph 1015.9mb 43f 15f
7:48am 11 17 mph 1015.8mb 43f 15f
7:42am 9 16 mph 1015.8mb 43f 14f
7:36am 14 17 mph 1015.5mb 43f 14f
7:30am 14 22 mph 1015.6mb 43f 14f
7:24am 11 17 mph 1015.6mb 43f 14f
7:18am 13 18 mph 1015.6mb 43f 14f
7:12am 10 16 mph 1015.5mb 43f 14f
7:06am 9 18 mph 1015.5mb 43f 14f
7:00am 10 16 mph 1015.3mb 43f 14f
6:54am 13 20 mph 1015.2mb 43f 14f
6:48am 15 21 mph 1015.2mb 43f 14f
6:42am 14 20 mph 1015.1mb 43f 15f
6:36am 10 15 mph 1015.3mb 43f 14f
6:30am 9 13 mph 1015.3mb 43f 14f
6:24am 10 15 mph 1015.2mb 42f 14f
6:18am 11 20 mph 1015.1mb 42f 14f
6:12am 15 22 mph 1014.8mb 43f 14f
6:06am 15 21 mph 1014.7mb 42f 15f
6:00am 14 22 mph 1014.6mb 42f 14f
5:54am 14 22 mph 1014.5mb 42f 14f
5:48am 10 18 mph 1014.4mb 42f 14f
5:42am 13 18 mph 1014.2mb 42f 14f
5:36am 10 17 mph 1014mb 42f 14f
5:30am 11 18 mph 1013.9mb 43f 14f
5:24am 10 17 mph 1013.9mb 42f 14f
5:18am 9 15 mph 1013.9mb 43f 14f
5:12am 9 17 mph 1013.8mb 42f 14f
5:06am 15 20 mph 1013.8mb 42f 14f
5:00am 13 16 mph 1013.8mb 42f 14f
4:54am 11 17 mph 1013.8mb 43f 14f
4:48am 11 17 mph 1013.7mb 43f 14f
4:42am 10 18 mph 1013.7mb 43f 14f
4:36am 13 21 mph 1013.6mb 43f 14f
4:30am 14 22 mph 1013.5mb 43f 14f
4:24am 13 21 mph 1013.4mb 43f 14f
4:18am 15 21 mph 1013.4mb 43f 14f
4:12am 14 21 mph 1013.5mb 43f 13f
4:06am 17 23 mph 1013.3mb 43f 14f
4:00am 17 24 mph 1013.1mb 43f 14f
3:54am 15 21 mph 1013mb 43f 14f
3:48am 14 20 mph 1013.1mb 43f 14f
3:42am 15 23 mph 1013.2mb 43f 14f
3:36am 13 18 mph 1013mb 43f 14f
3:30am 14 22 mph 1012.9mb 43f 14f
3:24am 15 22 mph 1013mb 43f 14f
3:18am 16 23 mph 1012.9mb 43f 14f
3:12am 16 29 mph 1012.8mb 43f 14f
3:06am 15 23 mph 1012.7mb 43f 14f
3:00am 14 22 mph 1012.6mb 43f 14f
2:54am 17 25 mph 1012.5mb 43f 14f
2:48am 16 29 mph 1012.5mb 43f 14f
2:42am 14 21 mph 1012.4mb 43f 15f
2:36am 15 20 mph 1012.6mb 43f 15f
2:30am 16 23 mph 1012.4mb 43f 15f
2:24am 13 21 mph 1012.4mb 43f 15f
2:18am 9 15 mph 1012.3mb 43f 15f
2:12am 13 21 mph 1012.2mb 43f 15f
2:06am 14 23 mph 1012mb 43f 15f
2:00am 18 28 mph 1011.8mb 42f 15f
1:54am 20 26 mph 1011.6mb 42f 15f
1:48am 16 24 mph 1011.6mb 42f -
1:42am 15 24 mph 1011.4mb 42f -
1:36am 10 15 mph 1011.5mb 42f -
1:30am 11 20 mph 1011.5mb 42f 15f
1:24am 15 25 mph 1011.3mb 42f 15f
1:18am 15 21 mph 1011.1mb 42f 15f
1:12am 14 22 mph 1011mb 42f 15f
1:06am 18 26 mph 1010.9mb 42f 15f
1:00am 10 18 mph 1011.1mb 42f 15f
12:54am 11 16 mph 1011mb 42f 15f
12:48am 11 15 mph 1010.9mb 42f -
12:42am 11 16 mph 1011mb 42f -
12:36am 9 17 mph 1011.1mb 42f -
12:30am 9 16 mph 1011.2mb 42f 15f
12:24am 6 15 mph 1011.1mb 42f 16f
12:18am 8 13 mph 1011.1mb 42f 15f
12:12am 10 14 mph 1011mb 42f 15f
12:06am 7 10 mph 1011.1mb 42f 15f
12:00am 10 16 mph 1011mb 42f 16f
Thu 12/14 11:54pm 14 20 mph 1010.8mb 41f 15f
11:48pm 16 21 mph 1010.7mb 42f 16f
11:42pm 21 24 mph 1010.6mb 42f 16f
11:36pm 18 24 mph 1010.8mb 42f 17f
11:30pm 17 23 mph 1010.7mb 42f 16f
11:24pm 15 25 mph 1010.8mb 42f 16f
11:18pm 17 23 mph 1010.7mb 42f 16f
11:12pm 17 25 mph 1010.5mb 42f 16f
11:06pm 16 21 mph 1010.5mb 42f 16f
11:00pm 15 22 mph 1010.5mb 42f 16f
10:54pm 18 22 mph 1010.4mb 42f 16f
10:48pm 17 25 mph 1010.4mb 42f 16f
10:42pm 13 20 mph 1010.4mb 42f 16f
10:36pm 14 22 mph 1010.2mb 42f 16f
10:30pm 16 22 mph 1010.2mb 42f 16f
10:24pm 14 26 mph 1010.1mb 42f 16f
10:18pm 14 21 mph 1010mb 42f 16f
10:12pm 20 30 mph 1009.7mb 42f 16f
10:06pm 15 24 mph 1009.6mb 42f 16f
10:00pm 15 25 mph 1009.4mb 42f 16f
9:54pm 17 24 mph 1009.3mb 42f 16f
9:48pm 17 22 mph 1009.2mb 42f 16f
9:42pm 14 21 mph 1009.1mb 42f 16f
9:36pm 15 22 mph 1009mb 42f 16f
9:30pm 20 25 mph 1008.8mb 42f 17f
9:24pm 18 24 mph 1008.7mb 42f 17f
9:18pm 21 29 mph 1008.5mb 42f 17f
9:12pm 20 25 mph 1008.4mb 42f 17f
9:06pm 21 26 mph 1008.4mb 42f 17f
9:00pm 16 23 mph 1008.3mb 42f 17f
8:54pm 15 21 mph 1008.2mb 42f 17f
8:48pm 15 24 mph 1008mb 42f 18f
8:42pm 20 26 mph 1007.7mb 42f 17f
8:36pm 16 29 mph 1007.8mb 42f 18f
8:30pm 16 25 mph 1007.7mb 42f 18f
8:24pm 17 28 mph 1007.6mb 42f 17f
8:18pm 13 25 mph 1007.6mb 42f 18f
8:12pm 17 23 mph 1007.3mb 42f 17f
8:06pm 18 24 mph 1007.1mb 42f 18f
8:00pm 20 26 mph 1007mb 42f 18f
7:54pm 18 24 mph 1006.9mb 42f 18f
7:48pm 22 28 mph 1006.8mb 42f 18f
7:42pm 20 25 mph 1006.8mb 42f 18f
7:36pm 20 30 mph 1006.7mb 42f 18f
7:30pm 21 33 mph 1006.7mb 42f 18f
7:24pm 22 33 mph 1006.6mb 42f 18f
7:18pm 16 29 mph 1006.6mb 42f 19f
7:12pm 16 23 mph 1006.6mb 42f 19f
7:06pm 16 21 mph 1006.5mb 43f 19f
7:00pm 14 18 mph 1006.4mb 44f 19f
6:54pm 14 17 mph 1006.2mb 44f 19f
6:48pm 14 18 mph 1006.1mb 44f 20f
6:42pm 15 17 mph 1006mb 44f 19f
6:36pm 14 21 mph 1005.8mb 44f 20f
6:30pm 15 21 mph 1005.6mb 44f 20f
6:24pm 15 20 mph 1005.4mb 44f 20f
6:18pm 17 20 mph 1005.3mb 44f 20f
6:12pm 17 21 mph 1005.1mb 44f 20f
6:06pm 14 21 mph 1005mb 44f 20f
6:00pm 15 18 mph 1004.9mb 44f 20f
5:54pm 13 17 mph 1004.8mb 44f 20f
5:48pm 10 14 mph 1004.8mb 44f 20f
4:54pm 10 14 mph 1003.6mb 44f 19f
4:48pm 8 11 mph 1003.6mb 43f 20f
3:54pm 14 22 mph 1002.6mb 43f 20f
3:48pm 16 20 mph 1002.4mb 43f 20f
2:54pm 11 20 mph 1001.7mb 43f 21f
2:48pm 11 18 mph 1001.5mb 43f 21f
2:42pm 10 13 mph 1001.3mb 43f 21f
2:36pm 10 17 mph 1001.2mb 43f 21f
2:30pm 14 18 mph 1001.1mb 43f 21f
2:24pm 17 20 mph 1000.9mb 43f 20f
2:18pm 15 20 mph 1001mb 43f 21f
2:12pm 14 17 mph 1000.9mb 43f 21f
2:06pm 13 18 mph 1000.9mb 43f 21f
2:00pm 11 20 mph 1000.9mb 43f 22f
1:54pm 9 16 mph 1000.8mb 43f 22f
1:48pm 14 18 mph 1000.7mb 43f 21f
1:42pm 15 20 mph 1000.5mb 43f 21f
1:36pm 15 18 mph 1000.5mb 43f 21f
1:30pm 14 17 mph 1000.4mb 43f 21f
1:24pm 15 17 mph 1000.3mb 43f 21f
1:18pm 13 18 mph 1000.3mb 43f 21f
1:12pm 13 20 mph 1000.3mb 43f 21f
1:06pm 13 18 mph 1000.3mb 43f 21f
1:00pm 10 16 mph 1000.3mb 43f 21f
12:54pm 10 16 mph 1000.3mb 43f 21f
12:48pm 16 20 mph 1000.2mb 43f 20f
12:42pm 15 18 mph 1000mb 43f 21f
12:36pm 16 20 mph 1000mb 43f 20f
12:30pm 16 20 mph 1000mb 43f 21f
12:24pm 18 21 mph 1000mb 43f 20f
12:18pm 15 22 mph 1000mb 43f 21f
12:12pm 14 22 mph 999.8mb 43f 21f
12:06pm 16 22 mph 999.8mb 43f 22f
12:00pm 16 22 mph 999.8mb 43f 21f
11:54am 17 23 mph 999.8mb 43f 21f
11:48am 20 25 mph 999.7mb 43f 21f
11:42am 13 21 mph 999.6mb 43f 21f
11:36am 18 22 mph 999.5mb 43f 21f
11:30am 16 22 mph 999.5mb 43f 22f
11:24am 18 24 mph 999.6mb 43f 22f
11:18am 16 23 mph 999.7mb 43f 22f
11:12am 14 22 mph 999.7mb 43f 22f
11:06am 18 21 mph 999.7mb 43f 22f
11:00am 17 28 mph 999.7mb 43f 22f
10:54am 17 26 mph 999.8mb 43f 22f
10:48am 11 23 mph 999.9mb 43f 23f
10:24am 14 22 mph 1000.2mb 43f 23f
10:18am 14 18 mph 1000.3mb 43f 23f
10:12am 11 20 mph 1000.5mb 43f 23f
10:06am 14 22 mph 1000.5mb 43f 23f
10:00am 14 20 mph 1000.4mb 43f 23f
9:54am 11 21 mph 1000.5mb 43f 23f
9:48am 14 18 mph 1000.4mb 43f 23f
9:42am 13 18 mph 1000.5mb 43f 23f
9:36am 14 18 mph 1000.5mb 43f 23f
9:30am 11 21 mph 1000.5mb 43f 23f
9:24am 15 22 mph 1000.5mb 43f 22f
9:18am 13 20 mph 1000.7mb 43f 23f
9:12am 9 15 mph 1000.7mb 43f 22f
9:06am 10 16 mph 1000.7mb 43f 22f
9:00am 7 13 mph 1000.7mb 43f 22f
8:54am 9 14 mph 1000.8mb 43f 22f
8:48am 11 15 mph 1000.8mb 43f 22f
8:42am 11 15 mph 1000.9mb 43f 22f
8:36am 9 16 mph 1000.8mb 44f 22f
8:30am 13 15 mph 1000.7mb 44f 21f
8:24am 10 14 mph 1000.6mb 44f 21f
8:18am 10 15 mph 1000.6mb 44f 21f
8:12am 9 16 mph 1000.6mb 44f 21f
8:06am 13 18 mph 1000.4mb 44f 20f
8:00am 15 18 mph 1000.3mb 44f 20f
7:54am 10 17 mph 1000.1mb 43f 20f
7:48am 11 16 mph 999.9mb 43f 20f
7:42am 8 17 mph 999.8mb 43f 20f
7:36am 8 14 mph 999.7mb 44f 20f
7:30am 11 16 mph 999.7mb 44f 20f
7:24am 9 16 mph 999.6mb 43f 20f
7:18am 11 15 mph 999.5mb 43f 20f
7:12am 11 18 mph 999.5mb 43f 20f
7:06am 10 17 mph 999.5mb 44f 20f
7:00am 10 17 mph 999.4mb 44f 20f
6:54am 11 16 mph 999.4mb 44f 20f
6:48am 15 21 mph 999.3mb 44f 20f
6:42am 11 20 mph 999.3mb 44f 20f
6:36am 11 18 mph 999.3mb 44f 20f
6:30am 14 18 mph 999.3mb 44f 20f
6:24am 14 22 mph 999.2mb 44f 20f
6:18am 16 22 mph 999mb 44f 20f
6:12am 13 23 mph 999mb 44f 21f
6:06am 8 16 mph 999mb 44f 21f
6:00am 11 16 mph 999mb 44f 21f
5:54am 11 18 mph 998.9mb 44f 21f
5:48am 15 21 mph 998.8mb 44f 21f
5:42am 13 22 mph 998.7mb 44f 21f
5:36am 17 25 mph 998.5mb 44f 21f
5:30am 14 21 mph 998.6mb 44f 21f
5:24am 13 29 mph 998.5mb 44f 21f
5:18am 18 29 mph 998.3mb 44f 21f
5:12am 15 25 mph 998.5mb 44f 21f
5:06am 14 22 mph 998.3mb 44f 21f
5:00am 16 23 mph 998.3mb 44f 21f
4:54am 17 28 mph 998.4mb 44f 21f
4:48am 13 24 mph 998.3mb 44f 21f
4:42am 15 22 mph 998.2mb 44f 21f
4:36am 16 24 mph 998mb 44f 21f
4:30am 18 28 mph 997.7mb 44f 21f
4:24am 15 30 mph 997.7mb 44f 21f
4:18am 17 28 mph 997.6mb 44f 20f
4:12am 16 24 mph 997.4mb 44f 20f
4:06am 17 24 mph 997.2mb 44f 20f
4:00am 21 28 mph 997.1mb 44f 20f
3:54am 17 23 mph 997.1mb 44f 19f
3:48am 15 29 mph 996.8mb 44f 19f
3:42am 15 21 mph 996.8mb 44f 19f
3:36am 17 30 mph 996.8mb 44f 19f
3:30am 15 22 mph 996.8mb 44f 19f
3:24am 17 29 mph 996.5mb 44f 19f
3:18am 18 25 mph 996.5mb 44f 19f
3:12am 18 29 mph 996.5mb 44f 19f
3:06am 18 26 mph 996.3mb 44f 19f
3:00am 14 23 mph 996.3mb 44f 19f
2:54am 18 25 mph 996.1mb 44f 19f
2:48am 17 31 mph 996.3mb 44f 19f
2:42am 20 32 mph 996.2mb 44f 19f
2:36am 15 24 mph 996.2mb 44f 19f
2:30am 14 22 mph 996.1mb 44f 19f
2:24am 15 23 mph 996.3mb 44f 19f
2:18am 15 28 mph 996.3mb 44f 19f
2:12am 15 25 mph 996.3mb 44f 19f
2:06am 15 24 mph 996.3mb 44f 19f
2:00am 18 29 mph 996.1mb 44f 18f
1:54am 16 29 mph 996mb 44f 18f
1:48am 18 28 mph 995.8mb 44f 18f
1:42am 21 32 mph 995.4mb 44f 18f
1:36am 20 33 mph 995.3mb 45f 17f
1:30am 18 33 mph 995.2mb 44f 17f
1:24am 22 32 mph 994.9mb 45f 17f
1:18am 20 32 mph 994.8mb 45f 17f
1:12am 17 25 mph 994.7mb 45f 17f
1:06am 15 25 mph 994.4mb 45f 17f
1:00am 21 31 mph 994mb 45f 17f
12:54am 21 29 mph 993.9mb 45f 17f
12:48am 18 30 mph 993.8mb - -
12:42am 21 31 mph 993.8mb - -
12:36am 16 30 mph 993.9mb - -
12:30am 21 30 mph 993.7mb 44f 17f
12:24am 20 31 mph 993.8mb 44f 16f
12:18am 13 28 mph 993.8mb 44f 16f
12:12am 16 23 mph 993.6mb 44f 16f
12:06am 17 26 mph 993.5mb 44f 16f
12:00am 17 28 mph 993.6mb 44f 16f
Wed 12/13 11:54pm 23 33 mph 993.5mb 44f 16f
11:48pm 20 30 mph 993.4mb 44f 16f
11:42pm 18 29 mph 993.4mb 44f 16f
11:36pm 16 24 mph 993.3mb 44f 16f
11:30pm 21 28 mph 993.3mb 44f 16f
11:24pm 16 24 mph 993.3mb 44f 16f
11:18pm 14 22 mph 993.3mb 44f 16f
11:12pm 15 23 mph 993.2mb 44f 16f
11:06pm 13 24 mph 993mb 44f 16f
11:00pm 18 29 mph 992.9mb 44f 16f
10:54pm 17 28 mph 992.7mb 44f 16f
10:48pm 14 23 mph 992.7mb 44f 16f
10:42pm 14 21 mph 992.4mb 44f 16f
10:36pm 13 23 mph 992.6mb 44f 16f
10:30pm 13 20 mph 992.2mb 44f 16f
10:24pm 13 29 mph 992mb 44f 17f
10:18pm 18 24 mph 991.7mb 44f 17f
10:12pm 11 22 mph 991.8mb 44f 16f
10:06pm 14 25 mph 992mb 44f 17f
10:00pm 18 36 mph 991.7mb 44f 17f
9:54pm 15 30 mph 991.3mb 44f 16f
9:48pm 11 28 mph 991.2mb 43f 17f
9:42pm 20 31 mph 991.2mb 43f 17f
9:36pm 18 30 mph 991mb 43f 17f
9:30pm 21 26 mph 990.8mb 43f 17f
9:24pm 22 29 mph 990.8mb 43f 17f
9:18pm 25 34 mph 990.5mb 43f 17f
9:12pm 21 30 mph 990.5mb 43f 17f
9:06pm 23 29 mph 990.2mb 44f 18f
9:00pm 23 32 mph 990mb 43f 17f
8:54pm 24 32 mph 990mb 43f 18f
8:48pm 21 28 mph 990mb 44f 18f
8:42pm 22 26 mph 989.9mb 44f 18f
8:36pm 22 32 mph 989.9mb 44f 17f
8:30pm 22 33 mph 989.7mb 44f 17f
8:24pm 21 31 mph 989.8mb 44f 17f
8:18pm 16 32 mph 989.7mb 44f 17f
8:12pm 20 33 mph 989.6mb 44f 17f
8:06pm 16 25 mph 989.4mb 44f 17f
8:00pm 18 29 mph 989.3mb 44f 17f
7:54pm 22 29 mph 989.2mb 44f 18f
7:48pm 15 26 mph 989mb 44f 18f
7:42pm 21 28 mph 988.8mb 44f 17f
7:36pm 20 30 mph 988.6mb 44f 18f
7:30pm 18 28 mph 988.6mb 44f 18f
7:24pm 18 29 mph 988.6mb 44f 18f
7:18pm 15 23 mph 988.6mb 45f 18f
7:12pm 17 31 mph 988.5mb 45f 18f
7:06pm 22 33 mph 988.2mb 45f 18f
7:00pm 16 25 mph 988.1mb 45f 18f
6:54pm 21 25 mph 988mb 45f 18f
6:48pm 18 24 mph 987.9mb 45f 19f
6:42pm 18 25 mph 987.7mb 45f 19f
6:36pm 20 29 mph 987.6mb 45f 19f
6:30pm 17 25 mph 987.4mb 45f 20f
6:24pm 21 28 mph 987.3mb 45f 20f
6:18pm 14 22 mph 987.3mb 45f 20f
6:12pm 18 29 mph 987mb 45f 20f
6:06pm 23 29 mph 986.7mb 45f 21f
6:00pm 21 29 mph 986.6mb 45f 21f
5:54pm 11 22 mph 986.7mb 45f 21f
5:48pm  -  mph 986.5mb 45f 22f
5:42pm  -  mph 986.2mb 45f 22f
5:36pm  -  mph 986.1mb 45f 22f
5:30pm 14 21 mph 986mb 45f 23f
5:24pm 20 25 mph 985.8mb 45f 23f
5:18pm 17 22 mph 985.7mb 45f 23f
5:12pm 16 24 mph 985.6mb 45f 23f
5:06pm 17 26 mph 985.5mb 45f 23f
5:00pm 15 25 mph 985.3mb 45f 24f
4:54pm 18 31 mph 985mb 45f 25f
4:48pm 16 25 mph 984.9mb 45f 25f
4:42pm 18 24 mph 984.7mb 45f 25f
4:36pm 14 25 mph 984.6mb 45f 26f
4:30pm 14 24 mph 984.5mb 45f 26f
4:24pm 20 28 mph 984.3mb 45f 26f
4:18pm 15 20 mph 984.2mb 45f 26f
4:12pm 16 22 mph 984.1mb 45f 26f
4:06pm 14 21 mph 984.1mb 45f 26f
4:00pm 15 23 mph 983.9mb 45f 26f
3:54pm 17 22 mph 983.9mb 45f 27f
3:48pm 20 25 mph 983.8mb 45f 27f
3:42pm 15 23 mph 983.8mb 45f 27f
3:36pm 14 22 mph 983.9mb 45f 27f
3:30pm 13 16 mph 983.9mb 45f 27f
3:24pm 9 14 mph 983.9mb 45f 27f
3:18pm 13 16 mph 983.7mb 45f 27f
3:12pm 14 20 mph 983.6mb 45f 26f
3:06pm 16 22 mph 983.5mb 45f 26f
3:00pm 13 20 mph 983.6mb 45f 27f
2:54pm 15 20 mph 983.5mb 44f 26f
2:48pm 16 23 mph 983.4mb 44f 26f
2:42pm 15 18 mph 983.4mb 44f 27f
2:36pm 13 18 mph 983.5mb 45f 27f
2:30pm 16 22 mph 983.4mb 45f 27f
2:24pm 14 20 mph 983.4mb 45f 27f
2:18pm 16 23 mph 983.3mb 45f 27f
2:12pm 18 22 mph 983.1mb 45f 26f
2:06pm 18 24 mph 983.1mb 45f 27f
2:00pm 21 25 mph 983mb 45f 26f
1:54pm 18 23 mph 982.9mb 45f 27f
1:48pm 20 22 mph 982.8mb 45f 26f
1:42pm 16 23 mph 982.8mb 45f 27f
1:36pm 18 24 mph 982.7mb 45f 26f
1:30pm 18 22 mph 982.6mb 45f 27f
1:24pm 17 22 mph 982.6mb 45f 27f
1:18pm 18 21 mph 982.6mb 45f 28f
1:12pm 16 21 mph 982.7mb 45f 27f
1:06pm 17 22 mph 982.7mb 45f 27f
1:00pm 16 20 mph 982.8mb 45f 28f
12:54pm 16 20 mph 982.7mb 45f 28f
12:48pm 16 20 mph 982.7mb 45f 28f
12:42pm 13 16 mph 982.7mb 45f 28f
12:36pm 13 17 mph 982.8mb 45f 28f
12:30pm 15 20 mph 982.9mb 45f 28f
12:24pm 15 18 mph 982.9mb 45f 28f
12:18pm 13 16 mph 983mb 45f 28f
12:12pm 13 17 mph 982.9mb 45f 29f
12:06pm 13 16 mph 982.8mb 45f 29f
12:00pm 9 16 mph 983mb 45f 29f
11:54am 9 15 mph 983.1mb 45f 29f
11:48am 9 14 mph 983.1mb 44f 29f
11:42am 9 15 mph 983mb 44f 29f
11:30am 13 15 mph 982.9mb 44f 29f
11:24am 10 17 mph 982.8mb 44f 30f
11:12am 9 13 mph 982.9mb 44f 30f
11:06am 8 13 mph 982.8mb 44f 30f
11:00am 10 14 mph 982.5mb 44f 31f
10:54am 9 14 mph 982.7mb 44f 30f
10:48am 10 14 mph 982.7mb 44f 30f
10:42am 9 14 mph 983mb 44f 30f
10:36am 10 16 mph 983.1mb 44f 30f
10:30am 13 16 mph 983mb 44f 30f
10:24am 14 17 mph 983.1mb 44f 31f
10:18am 14 17 mph 983.2mb 44f 30f
10:12am 9 15 mph 983.5mb 44f 31f